Time;durP1;ratioP1;P1;durP2;ratioP2;P2;SDS_P1;SDS_P2;PMS_P1;PMS_P2;Temp;Humidity;BMP_temperature;BMP_pressure;BME280_temperature;BME280_humidity;BME280_pressure;Samples;Min_cycle;Max_cycle;Signal;HPM_P1;HPM_P2
2024/03/02 00:00:21;;;;;;;2.70;2.50;;;8.40;99.90;;;;;;5034140;28;20520;-72
2024/03/02 00:02:51;;;;;;;2.80;2.50;;;8.50;99.90;;;;;;5033886;28;20436;-67
2024/03/02 00:05:19;;;;;;;2.30;2.10;;;8.40;99.90;;;;;;5035809;28;20431;-72
2024/03/02 00:07:56;;;;;;;2.90;2.10;;;8.40;99.90;;;;;;5030872;28;21188;-67
2024/03/02 00:10:31;;;;;;;2.53;2.30;;;8.40;99.90;;;;;;5034940;28;20436;-69
2024/03/02 00:12:57;;;;;;;2.60;2.20;;;8.40;99.90;;;;;;5033702;28;20518;-69
2024/03/02 00:15:48;;;;;;;2.60;2.40;;;8.50;99.90;;;;;;5034387;28;20511;-67
2024/03/02 00:18:39;;;;;;;2.33;2.07;;;8.50;99.90;;;;;;5034131;28;20433;-71
2024/03/02 00:21:09;;;;;;;2.40;1.83;;;8.50;99.90;;;;;;5033428;28;21014;-69
2024/03/02 00:23:35;;;;;;;2.90;2.33;;;8.50;99.90;;;;;;5034229;28;20918;-68
2024/03/02 00:26:01;;;;;;;2.03;1.87;;;8.50;99.90;;;;;;5033548;28;20531;-70
2024/03/02 00:28:36;;;;;;;2.50;2.00;;;8.50;99.90;;;;;;5035207;28;20458;-68
2024/03/02 00:31:07;;;;;;;3.40;2.00;;;8.50;99.90;;;;;;5033478;28;20429;-70
2024/03/02 00:33:40;;;;;;;2.33;2.00;;;8.50;99.90;;;;;;5033357;28;20433;-69
2024/03/02 00:36:08;;;;;;;3.20;2.00;;;8.50;99.90;;;;;;5034395;28;20543;-70
2024/03/02 00:38:40;;;;;;;2.10;1.77;;;8.50;99.90;;;;;;5032820;28;20451;-68
2024/03/02 00:41:07;;;;;;;2.70;2.10;;;8.40;99.90;;;;;;5034211;28;20424;-71
2024/03/02 00:44:05;;;;;;;2.70;2.20;;;8.50;99.90;;;;;;5033450;28;20425;-66
2024/03/02 00:46:42;;;;;;;2.23;1.80;;;8.50;99.90;;;;;;5033868;28;20855;-67
2024/03/02 00:49:11;;;;;;;5.10;2.10;;;8.50;99.90;;;;;;5033906;28;20463;-69
2024/03/02 00:51:37;;;;;;;2.40;1.80;;;8.40;99.90;;;;;;5034287;28;20486;-68
2024/03/02 00:54:08;;;;;;;1.83;1.63;;;8.40;99.90;;;;;;5034962;28;20455;-75
2024/03/02 00:56:35;;;;;;;2.13;2.00;;;8.40;99.90;;;;;;5047507;28;20498;-70
2024/03/02 00:59:00;;;;;;;1.80;1.70;;;8.40;99.90;;;;;;5033807;28;20428;-71
2024/03/02 01:01:27;;;;;;;2.87;1.80;;;8.30;99.90;;;;;;5034724;28;20421;-69
2024/03/02 01:03:53;;;;;;;3.77;1.90;;;8.40;99.90;;;;;;5033620;28;20240;-72
2024/03/02 01:06:18;;;;;;;2.30;1.90;;;8.40;99.90;;;;;;5031956;28;20436;-65
2024/03/02 01:08:44;;;;;;;2.20;1.77;;;8.40;99.90;;;;;;5032233;28;20444;-70
2024/03/02 01:11:10;;;;;;;2.00;1.80;;;8.40;99.90;;;;;;5033495;28;20194;-65
2024/03/02 01:13:36;;;;;;;3.00;1.63;;;8.40;99.90;;;;;;5033780;28;20985;-69
2024/03/02 01:16:02;;;;;;;1.90;1.33;;;8.40;99.90;;;;;;5034040;28;20673;-66
2024/03/02 01:18:28;;;;;;;1.90;1.67;;;8.40;99.90;;;;;;5032637;28;20194;-72
2024/03/02 01:20:57;;;;;;;1.57;1.47;;;8.50;99.90;;;;;;5032279;28;21032;-66
2024/03/02 01:23:23;;;;;;;2.07;1.63;;;8.50;99.90;;;;;;5033630;28;20441;-69
2024/03/02 01:25:51;;;;;;;1.60;1.50;;;8.50;99.90;;;;;;5030102;28;20490;-72
2024/03/02 01:28:17;;;;;;;1.93;1.70;;;8.50;99.90;;;;;;5033837;28;20436;-69
2024/03/02 01:30:43;;;;;;;1.77;1.20;;;8.50;99.90;;;;;;5032792;28;20466;-73
2024/03/02 01:33:09;;;;;;;2.00;1.80;;;8.50;99.90;;;;;;5033549;28;20182;-71
2024/03/02 01:35:34;;;;;;;2.93;1.60;;;8.60;99.90;;;;;;5029655;28;20545;-71
2024/03/02 01:38:01;;;;;;;1.97;1.40;;;8.60;99.90;;;;;;5032942;28;20472;-68
2024/03/02 01:40:26;;;;;;;1.80;1.60;;;8.60;99.90;;;;;;5033179;28;20190;-71
2024/03/02 01:42:57;;;;;;;1.80;1.67;;;8.60;99.90;;;;;;5033270;28;20417;-72
2024/03/02 01:45:23;;;;;;;2.70;1.77;;;8.70;99.90;;;;;;5033418;28;20999;-67
2024/03/02 01:47:49;;;;;;;3.63;1.80;;;8.70;99.90;;;;;;5032205;28;20441;-65
2024/03/02 01:50:15;;;;;;;2.20;1.30;;;8.70;99.90;;;;;;5030372;28;20445;-70
2024/03/02 01:52:41;;;;;;;1.90;1.50;;;8.80;99.90;;;;;;5032096;28;20652;-66
2024/03/02 01:55:08;;;;;;;2.67;1.90;;;8.80;99.90;;;;;;5031925;28;20490;-70
2024/03/02 01:57:34;;;;;;;1.30;1.10;;;8.70;99.90;;;;;;5033577;28;20433;-71
2024/03/02 02:00:00;;;;;;;2.47;1.60;;;8.70;99.90;;;;;;5049816;28;20421;-68
2024/03/02 02:02:26;;;;;;;3.53;1.50;;;8.60;99.90;;;;;;5069548;28;20442;-68
2024/03/02 02:04:52;;;;;;;4.50;1.50;;;8.70;99.90;;;;;;5036753;28;20432;-68
2024/03/02 02:07:18;;;;;;;3.13;1.73;;;8.80;99.90;;;;;;5036646;28;20197;-69
2024/03/02 02:09:43;;;;;;;2.10;1.50;;;8.70;99.90;;;;;;5035357;28;20820;-69
2024/03/02 02:12:10;;;;;;;3.23;1.37;;;8.70;99.90;;;;;;5036685;28;20679;-68
2024/03/02 02:14:36;;;;;;;2.10;1.10;;;8.80;99.90;;;;;;5036239;28;20302;-69
2024/03/02 02:17:02;;;;;;;1.73;1.63;;;8.70;99.90;;;;;;5037329;28;20830;-70
2024/03/02 02:19:28;;;;;;;1.40;1.30;;;8.70;99.90;;;;;;5037480;28;20468;-68
2024/03/02 02:21:54;;;;;;;2.40;1.40;;;8.80;99.90;;;;;;5036653;28;20460;-72
2024/03/02 02:24:20;;;;;;;2.40;1.70;;;8.70;99.90;;;;;;5036509;28;20443;-71
2024/03/02 02:26:46;;;;;;;1.50;1.20;;;8.80;99.90;;;;;;5036719;28;20841;-70
2024/03/02 02:29:12;;;;;;;2.20;1.43;;;8.80;99.90;;;;;;5035571;28;20235;-68
2024/03/02 02:31:39;;;;;;;1.70;1.23;;;8.70;99.90;;;;;;5036337;28;20189;-68
2024/03/02 02:34:05;;;;;;;1.87;1.50;;;8.80;99.90;;;;;;5036431;28;20437;-69
2024/03/02 02:36:34;;;;;;;1.83;1.63;;;8.70;99.90;;;;;;5035723;28;21024;-69
2024/03/02 02:39:03;;;;;;;1.50;1.30;;;8.80;99.90;;;;;;5036075;28;20429;-73
2024/03/02 02:41:29;;;;;;;1.60;1.40;;;8.70;99.90;;;;;;5037006;28;20494;-70
2024/03/02 02:43:55;;;;;;;2.27;1.57;;;8.80;99.90;;;;;;5035533;28;20421;-69
2024/03/02 02:46:21;;;;;;;4.10;1.43;;;8.70;99.90;;;;;;5035532;28;20433;-67
2024/03/02 02:48:47;;;;;;;1.70;1.37;;;8.70;99.90;;;;;;5034480;28;20470;-74
2024/03/02 02:51:12;;;;;;;1.60;1.50;;;8.70;99.90;;;;;;5035964;28;20241;-65
2024/03/02 02:53:40;;;;;;;2.70;1.50;;;8.80;99.90;;;;;;5036011;28;20235;-69
2024/03/02 02:56:09;;;;;;;1.37;1.17;;;8.80;99.90;;;;;;5034225;28;20224;-68
2024/03/02 02:58:35;;;;;;;1.70;1.40;;;8.90;99.90;;;;;;5034075;28;20436;-65
2024/03/02 03:01:01;;;;;;;2.33;1.37;;;8.90;99.90;;;;;;5034851;28;20425;-73
2024/03/02 03:03:27;;;;;;;1.60;1.50;;;8.90;99.90;;;;;;5035213;28;20196;-65
2024/03/02 03:05:52;;;;;;;3.93;1.53;;;9.00;99.90;;;;;;5034706;28;20417;-69
2024/03/02 03:08:18;;;;;;;1.70;1.30;;;9.00;99.90;;;;;;5035242;28;20212;-67
2024/03/02 03:10:44;;;;;;;3.17;1.43;;;9.00;99.90;;;;;;5032338;28;20677;-72
2024/03/02 03:13:10;;;;;;;1.77;1.37;;;9.00;99.90;;;;;;5034462;28;20529;-68
2024/03/02 03:15:39;;;;;;;1.50;1.40;;;8.90;99.90;;;;;;5034038;28;20470;-69
2024/03/02 03:18:05;;;;;;;2.70;1.53;;;9.00;99.90;;;;;;5032867;28;20186;-67
2024/03/02 03:20:30;;;;;;;2.80;1.40;;;8.90;99.90;;;;;;5034777;28;20443;-68
2024/03/02 03:23:00;;;;;;;2.20;1.33;;;8.90;99.90;;;;;;5035234;28;20436;-69
2024/03/02 03:25:26;;;;;;;2.23;1.40;;;8.90;99.90;;;;;;5033429;28;20190;-73
2024/03/02 03:27:52;;;;;;;3.03;1.20;;;8.80;99.90;;;;;;5035062;28;21194;-70
2024/03/02 03:30:18;;;;;;;4.97;1.53;;;8.80;99.90;;;;;;5033960;28;20436;-67
2024/03/02 03:32:44;;;;;;;1.60;1.10;;;8.90;99.90;;;;;;5034490;28;20526;-70
2024/03/02 03:35:10;;;;;;;1.13;1.03;;;8.90;99.90;;;;;;5034118;28;20528;-69
2024/03/02 03:37:36;;;;;;;3.30;1.30;;;8.90;99.90;;;;;;5031826;28;20185;-66
2024/03/02 03:40:02;;;;;;;1.83;1.53;;;8.90;99.90;;;;;;5034410;28;20182;-68
2024/03/02 03:42:28;;;;;;;2.90;1.87;;;8.90;99.90;;;;;;5034207;28;20998;-67
2024/03/02 03:44:54;;;;;;;3.10;1.60;;;8.90;99.90;;;;;;5033068;28;20441;-64
2024/03/02 03:47:20;;;;;;;2.70;1.00;;;8.90;99.90;;;;;;5034558;28;21621;-66
2024/03/02 03:49:46;;;;;;;1.90;1.73;;;8.80;99.90;;;;;;5034206;28;20818;-67
2024/03/02 03:52:11;;;;;;;2.17;1.60;;;8.90;99.90;;;;;;5035147;28;20781;-66
2024/03/02 03:54:38;;;;;;;3.50;1.20;;;9.00;99.90;;;;;;5033170;28;20260;-68
2024/03/02 03:57:04;;;;;;;2.03;1.43;;;9.00;99.90;;;;;;5031981;28;20605;-67
2024/03/02 03:59:30;;;;;;;1.80;1.40;;;9.10;99.90;;;;;;5032815;28;20499;-68
2024/03/02 04:01:56;;;;;;;1.70;1.33;;;9.00;99.90;;;;;;5034722;28;20430;-66
2024/03/02 04:04:22;;;;;;;1.43;1.30;;;9.00;99.90;;;;;;5032583;28;20183;-68
2024/03/02 04:06:47;;;;;;;2.70;1.40;;;9.00;99.90;;;;;;5034448;28;20194;-67
2024/03/02 04:09:13;;;;;;;2.57;1.40;;;9.00;99.90;;;;;;5034693;28;20908;-70
2024/03/02 04:11:39;;;;;;;2.30;1.57;;;9.00;99.90;;;;;;5032010;28;20277;-68
2024/03/02 04:14:06;;;;;;;2.17;1.43;;;9.00;99.90;;;;;;5033873;28;20178;-69
2024/03/02 04:16:31;;;;;;;1.77;1.23;;;9.00;99.90;;;;;;5033087;28;20222;-69
2024/03/02 04:18:57;;;;;;;1.43;1.20;;;9.00;99.90;;;;;;5033728;28;20435;-68
2024/03/02 04:21:23;;;;;;;1.83;1.10;;;9.00;99.90;;;;;;5031458;28;20192;-66
2024/03/02 04:23:48;;;;;;;1.63;1.40;;;9.00;99.90;;;;;;5031507;28;20296;-67
2024/03/02 04:26:15;;;;;;;1.97;1.60;;;9.00;99.90;;;;;;5034075;28;20190;-66
2024/03/02 04:28:40;;;;;;;1.40;1.17;;;9.00;99.90;;;;;;5032999;28;20213;-68
2024/03/02 04:31:06;;;;;;;1.43;1.10;;;9.00;99.90;;;;;;5033784;28;20968;-67
2024/03/02 04:33:32;;;;;;;1.47;1.37;;;9.00;99.90;;;;;;5033089;28;20196;-70
2024/03/02 04:35:57;;;;;;;1.67;1.40;;;9.00;99.90;;;;;;5033697;28;20267;-66
2024/03/02 04:38:23;;;;;;;1.83;1.23;;;8.90;99.90;;;;;;5032100;28;20189;-67
2024/03/02 04:40:49;;;;;;;4.17;1.37;;;8.90;99.90;;;;;;5033527;28;20547;-70
2024/03/02 04:43:16;;;;;;;1.57;1.40;;;8.90;99.90;;;;;;5033461;28;20213;-67
2024/03/02 04:45:42;;;;;;;2.53;1.63;;;8.90;99.90;;;;;;5032881;28;20174;-69
2024/03/02 04:48:08;;;;;;;1.93;1.43;;;8.90;99.90;;;;;;5033275;28;20448;-71
2024/03/02 04:50:34;;;;;;;2.13;1.67;;;8.90;99.90;;;;;;5033215;28;20429;-70
2024/03/02 04:52:59;;;;;;;3.13;1.40;;;8.90;99.90;;;;;;5032718;28;20186;-71
2024/03/02 04:57:56;;;;;;;2.30;1.40;;;8.80;99.90;;;;;;5033348;28;20186;-68
2024/03/02 05:00:22;;;;;;;1.80;1.47;;;8.80;99.90;;;;;;5032415;28;20433;-68
2024/03/02 05:02:48;;;;;;;3.70;1.53;;;8.80;99.90;;;;;;5033221;28;20447;-72
2024/03/02 05:05:17;;;;;;;3.17;2.00;;;8.70;99.90;;;;;;5034104;28;20451;-66
2024/03/02 05:07:43;;;;;;;2.40;1.57;;;8.80;99.90;;;;;;5030939;28;20190;-73
2024/03/02 05:10:09;;;;;;;2.60;1.70;;;8.80;99.90;;;;;;5032361;28;20597;-69
2024/03/02 05:15:11;;;;;;;2.40;1.67;;;8.70;99.90;;;;;;5033992;28;20471;-70
2024/03/02 05:17:38;;;;;;;2.10;1.70;;;8.70;99.90;;;;;;5028735;28;20437;-67
2024/03/02 05:20:08;;;;;;;2.80;1.70;;;8.60;99.90;;;;;;5033113;28;20440;-70
2024/03/02 05:22:34;;;;;;;2.97;1.90;;;8.60;99.90;;;;;;5032809;28;20934;-70
2024/03/02 05:25:00;;;;;;;2.03;1.60;;;8.60;99.90;;;;;;5034167;28;20431;-64
2024/03/02 05:27:27;;;;;;;2.93;2.00;;;8.50;99.90;;;;;;5032186;28;20447;-68
2024/03/02 05:29:52;;;;;;;2.57;1.40;;;8.50;99.90;;;;;;5033742;28;20935;-67
2024/03/02 05:32:18;;;;;;;2.60;1.80;;;8.40;99.90;;;;;;5031295;28;20444;-68
2024/03/02 05:34:44;;;;;;;1.77;1.63;;;8.40;99.90;;;;;;5036074;28;21666;-70
2024/03/02 05:37:09;;;;;;;1.67;1.40;;;8.40;99.90;;;;;;5035263;28;20252;-71
2024/03/02 05:39:35;;;;;;;2.73;1.97;;;8.40;99.90;;;;;;5037650;28;20196;-72
2024/03/02 05:42:01;;;;;;;1.50;1.40;;;8.30;99.90;;;;;;5037761;28;20190;-67
2024/03/02 05:44:27;;;;;;;2.77;1.80;;;8.40;99.90;;;;;;5036217;28;20196;-67
2024/03/02 05:46:52;;;;;;;2.63;1.77;;;8.30;99.90;;;;;;5034171;28;20266;-64
2024/03/02 05:49:18;;;;;;;4.43;2.17;;;8.30;99.90;;;;;;5035723;28;20209;-69
2024/03/02 05:51:44;;;;;;;2.20;1.80;;;8.30;99.90;;;;;;5037385;28;20197;-70
2024/03/02 05:54:09;;;;;;;2.13;1.93;;;8.30;99.90;;;;;;5037444;28;20633;-68
2024/03/02 05:56:35;;;;;;;3.53;2.10;;;8.20;99.90;;;;;;5035936;28;20245;-67
2024/03/02 05:59:13;;;;;;;2.50;1.83;;;8.20;99.90;;;;;;5037666;28;20268;-64
2024/03/02 06:01:43;;;;;;;3.57;1.90;;;8.20;99.90;;;;;;5036867;28;20786;-70
2024/03/02 06:04:13;;;;;;;3.00;2.20;;;8.20;99.90;;;;;;5036906;28;20432;-69
2024/03/02 06:06:39;;;;;;;2.27;2.07;;;8.20;99.90;;;;;;5036402;28;20455;-67
2024/03/02 06:09:07;;;;;;;2.67;2.30;;;8.20;99.90;;;;;;5035196;28;20431;-69
2024/03/02 06:11:34;;;;;;;3.23;2.50;;;8.20;99.90;;;;;;5034431;28;20502;-71
2024/03/02 06:13:59;;;;;;;3.30;2.47;;;8.10;99.90;;;;;;5036195;28;20502;-67
2024/03/02 06:16:25;;;;;;;4.20;2.60;;;8.20;99.90;;;;;;5035528;28;20563;-67
2024/03/02 06:18:51;;;;;;;3.47;2.70;;;8.10;99.90;;;;;;5036921;28;20185;-70
2024/03/02 06:21:18;;;;;;;3.67;2.60;;;8.10;99.90;;;;;;5034968;28;20189;-68
2024/03/02 06:23:44;;;;;;;4.40;2.80;;;8.10;99.90;;;;;;5037162;28;20648;-70
2024/03/02 06:26:09;;;;;;;3.67;3.03;;;8.10;99.90;;;;;;5034154;28;20446;-69
2024/03/02 06:28:35;;;;;;;3.00;2.70;;;8.10;99.90;;;;;;5035144;28;20452;-70
2024/03/02 06:31:02;;;;;;;4.13;3.33;;;8.10;99.90;;;;;;5036711;28;20224;-65
2024/03/02 06:33:28;;;;;;;3.57;2.90;;;8.10;99.90;;;;;;5034983;28;20193;-66
2024/03/02 06:35:54;;;;;;;2.60;2.17;;;8.10;99.90;;;;;;5035486;28;20564;-72
2024/03/02 06:38:20;;;;;;;3.70;3.27;;;8.10;99.90;;;;;;5035015;28;20535;-66
2024/03/02 06:40:45;;;;;;;3.90;3.20;;;8.10;99.90;;;;;;5036378;28;20432;-64
2024/03/02 06:43:11;;;;;;;5.80;2.80;;;8.20;99.90;;;;;;5036195;28;20436;-65
2024/03/02 06:45:37;;;;;;;3.87;3.17;;;8.20;99.90;;;;;;5032579;28;20192;-68
2024/03/02 06:48:02;;;;;;;3.73;2.97;;;8.30;99.90;;;;;;5035692;28;20209;-66
2024/03/02 06:50:28;;;;;;;2.30;2.03;;;8.40;99.90;;;;;;5031706;28;20729;-68
2024/03/02 06:52:55;;;;;;;4.07;3.10;;;8.40;99.90;;;;;;5033053;28;20190;-70
2024/03/02 06:55:22;;;;;;;6.53;3.07;;;8.40;99.90;;;;;;5034672;28;20468;-66
2024/03/02 06:57:47;;;;;;;4.07;3.10;;;8.40;99.90;;;;;;5035682;28;20787;-67
2024/03/02 07:00:13;;;;;;;5.30;3.40;;;8.40;99.90;;;;;;5035589;28;20448;-69
2024/03/02 07:02:42;;;;;;;3.67;3.07;;;8.40;99.90;;;;;;5035579;28;20585;-70
2024/03/02 07:05:08;;;;;;;5.47;3.10;;;8.40;99.90;;;;;;5035133;28;20428;-69
2024/03/02 07:07:35;;;;;;;3.33;2.60;;;8.40;99.90;;;;;;5035563;28;21010;-68
2024/03/02 07:10:01;;;;;;;4.33;3.10;;;8.40;99.90;;;;;;5036100;28;20523;-69
2024/03/02 07:12:27;;;;;;;5.60;2.70;;;8.50;99.90;;;;;;5033532;28;20476;-68
2024/03/02 07:15:11;;;;;;;3.37;3.07;;;8.50;99.90;;;;;;5035333;28;20492;-64
2024/03/02 07:17:37;;;;;;;5.63;3.10;;;8.50;99.90;;;;;;5032011;28;20200;-69
2024/03/02 07:20:03;;;;;;;3.73;2.93;;;8.50;99.90;;;;;;5032644;28;20417;-66
2024/03/02 07:22:29;;;;;;;4.70;2.80;;;8.50;99.90;;;;;;5032486;28;20531;-65
2024/03/02 07:24:55;;;;;;;3.50;2.93;;;8.60;99.90;;;;;;5032794;28;20875;-66
2024/03/02 07:27:21;;;;;;;4.50;3.50;;;8.70;99.90;;;;;;5032920;28;20499;-70
2024/03/02 07:29:47;;;;;;;4.60;2.70;;;8.70;99.90;;;;;;5031686;28;20441;-67
2024/03/02 07:32:12;;;;;;;7.47;3.23;;;8.80;99.90;;;;;;5031403;28;20433;-67
2024/03/02 07:34:38;;;;;;;4.10;3.33;;;8.70;99.90;;;;;;5029695;28;20245;-70
2024/03/02 07:37:04;;;;;;;3.80;2.63;;;8.70;99.90;;;;;;5033814;28;20240;-68
2024/03/02 07:39:30;;;;;;;4.93;3.40;;;8.80;99.90;;;;;;5033375;28;20200;-66
2024/03/02 07:41:56;;;;;;;6.13;3.00;;;8.80;99.90;;;;;;5033175;28;20270;-71
2024/03/02 07:44:22;;;;;;;4.13;3.40;;;8.80;99.90;;;;;;5033715;28;20431;-72
2024/03/02 07:46:51;;;;;;;5.00;3.10;;;8.90;99.90;;;;;;5032729;28;21043;-66
2024/03/02 07:49:17;;;;;;;4.03;3.30;;;9.00;99.90;;;;;;5041150;28;20202;-70
2024/03/02 07:51:43;;;;;;;6.30;2.80;;;9.20;99.90;;;;;;5031359;28;20593;-69
2024/03/02 07:54:09;;;;;;;3.97;3.00;;;9.30;99.90;;;;;;5028270;28;20961;-66
2024/03/02 07:56:35;;;;;;;3.60;2.53;;;9.40;99.90;;;;;;5028149;28;20488;-76
2024/03/02 07:59:04;;;;;;;5.93;3.10;;;9.40;99.90;;;;;;5032314;28;20204;-71
2024/03/02 08:01:31;;;;;;;3.33;2.60;;;9.70;99.90;;;;;;5029188;28;20444;-69
2024/03/02 08:03:58;;;;;;;3.90;2.97;;;9.80;99.90;;;;;;5035116;28;20448;-74
2024/03/02 08:06:27;;;;;;;3.20;2.80;;;10.00;99.90;;;;;;5034595;28;20461;-71
2024/03/02 08:08:57;;;;;;;5.63;2.70;;;10.10;99.90;;;;;;5034150;28;20434;-69
2024/03/02 08:11:23;;;;;;;2.60;2.40;;;10.20;99.90;;;;;;5032128;28;20436;-67
2024/03/02 08:13:49;;;;;;;2.97;2.50;;;10.30;99.90;;;;;;5035225;28;20432;-69
2024/03/02 08:16:21;;;;;;;2.93;2.60;;;10.20;99.90;;;;;;5035106;28;20500;-70
2024/03/02 08:18:50;;;;;;;2.50;2.20;;;10.30;99.90;;;;;;5035761;28;20174;-69
2024/03/02 08:21:17;;;;;;;2.53;2.33;;;10.40;99.90;;;;;;5049351;28;20489;-73
2024/03/02 08:23:43;;;;;;;2.73;2.30;;;10.60;99.90;;;;;;5035749;28;20471;-66
2024/03/02 08:26:10;;;;;;;2.93;2.50;;;10.70;99.90;;;;;;5033729;28;20851;-71
2024/03/02 08:28:42;;;;;;;2.40;2.20;;;10.90;99.90;;;;;;5033880;28;20468;-66
2024/03/02 08:31:08;;;;;;;3.37;2.33;;;10.90;99.90;;;;;;5034485;28;20810;-68
2024/03/02 08:33:34;;;;;;;2.97;2.30;;;11.10;99.90;;;;;;5034468;28;20436;-69
2024/03/02 08:36:00;;;;;;;2.37;2.13;;;11.20;99.90;;;;;;5033934;28;20529;-70
2024/03/02 08:38:26;;;;;;;2.93;2.30;;;11.40;99.90;;;;;;5032914;28;20431;-70
2024/03/02 08:40:52;;;;;;;2.93;2.20;;;11.40;99.90;;;;;;5034717;28;20428;-71
2024/03/02 08:43:18;;;;;;;3.40;2.40;;;11.50;99.90;;;;;;5033109;28;20606;-67
2024/03/02 08:45:44;;;;;;;3.80;2.33;;;11.70;99.90;;;;;;5034380;28;20201;-64
2024/03/02 08:48:10;;;;;;;2.67;2.47;;;11.70;99.90;;;;;;5032012;28;20443;-68
2024/03/02 08:50:36;;;;;;;2.53;2.30;;;11.70;99.90;;;;;;5034632;28;20429;-72
2024/03/02 08:53:03;;;;;;;2.60;2.40;;;11.80;99.90;;;;;;5033685;28;20243;-69
2024/03/02 08:55:29;;;;;;;3.33;2.17;;;11.90;99.90;;;;;;5032952;28;20490;-69
2024/03/02 08:57:55;;;;;;;3.30;2.07;;;11.80;99.90;;;;;;5033399;28;20809;-68
2024/03/02 09:00:22;;;;;;;4.07;2.23;;;11.90;99.90;;;;;;5032542;28;20182;-67
2024/03/02 09:02:47;;;;;;;2.67;2.10;;;11.80;99.90;;;;;;5032980;28;20416;-67
2024/03/02 09:05:13;;;;;;;4.20;2.50;;;11.60;99.90;;;;;;5032566;28;21418;-67
2024/03/02 09:07:39;;;;;;;2.30;2.00;;;11.50;99.90;;;;;;5013374;28;20190;-66
2024/03/02 09:10:08;;;;;;;3.93;2.30;;;11.50;99.90;;;;;;5031812;28;20280;-69
2024/03/02 09:12:34;;;;;;;3.57;2.60;;;11.50;99.90;;;;;;5032959;28;20182;-70
2024/03/02 09:15:01;;;;;;;2.27;1.80;;;11.60;99.90;;;;;;5033690;28;20460;-72
2024/03/02 09:17:27;;;;;;;2.20;2.00;;;11.80;99.90;;;;;;5034358;28;20433;-68
2024/03/02 09:19:52;;;;;;;2.00;1.80;;;11.90;99.90;;;;;;5035094;28;20417;-69
2024/03/02 09:22:21;;;;;;;2.30;2.10;;;12.10;99.90;;;;;;5031013;28;20273;-66
2024/03/02 09:24:47;;;;;;;2.70;1.90;;;12.20;99.90;;;;;;5033283;28;20179;-69
2024/03/02 09:27:13;;;;;;;2.83;2.10;;;12.30;99.90;;;;;;5032975;28;20470;-66
2024/03/02 09:29:38;;;;;;;2.93;1.70;;;12.50;99.90;;;;;;5030407;28;20268;-69
2024/03/02 09:32:05;;;;;;;1.80;1.70;;;12.60;99.90;;;;;;5031955;28;20193;-70
2024/03/02 09:34:31;;;;;;;2.97;1.57;;;12.60;99.90;;;;;;5035498;28;20182;-67
2024/03/02 09:36:57;;;;;;;3.30;1.70;;;12.90;99.90;;;;;;5034776;28;20467;-65
2024/03/02 09:39:25;;;;;;;1.97;1.77;;;13.00;99.90;;;;;;5034618;28;20432;-71
2024/03/02 09:41:51;;;;;;;1.80;1.53;;;13.00;99.90;;;;;;5034685;28;20173;-67
2024/03/02 09:44:17;;;;;;;1.30;1.20;;;13.10;99.90;;;;;;5033713;28;20524;-65
2024/03/02 09:46:43;;;;;;;1.50;1.40;;;13.10;99.90;;;;;;5035276;28;20585;-66
2024/03/02 09:49:11;;;;;;;5.43;1.33;;;13.10;99.90;;;;;;5033016;28;20247;-68
2024/03/02 09:51:37;;;;;;;1.23;1.10;;;13.00;99.90;;;;;;5034875;28;20425;-69
2024/03/02 09:54:03;;;;;;;1.73;1.37;;;13.20;99.90;;;;;;5033950;28;20781;-64
2024/03/02 09:56:29;;;;;;;2.07;1.30;;;13.30;99.90;;;;;;5033514;28;20625;-69
2024/03/02 09:58:55;;;;;;;2.40;1.40;;;13.50;99.90;;;;;;5034244;28;20512;-75
2024/03/02 10:01:20;;;;;;;1.07;0.93;;;13.60;99.90;;;;;;5032881;28;20189;-74
2024/03/02 10:03:50;;;;;;;1.83;1.30;;;13.80;99.90;;;;;;5034682;28;20219;-69
2024/03/02 10:06:24;;;;;;;1.73;1.30;;;13.90;99.90;;;;;;5033266;28;20190;-70
2024/03/02 10:08:51;;;;;;;2.40;1.30;;;13.90;99.90;;;;;;5034140;28;20507;-64
2024/03/02 10:11:31;;;;;;;2.57;1.70;;;14.10;99.90;;;;;;5035086;28;20437;-66
2024/03/02 10:14:13;;;;;;;3.53;1.10;;;14.20;99.90;;;;;;5034087;28;20433;-68
2024/03/02 10:16:40;;;;;;;1.47;1.37;;;14.30;99.90;;;;;;5066839;28;20474;-67
2024/03/02 10:19:22;;;;;;;1.10;1.00;;;14.20;99.90;;;;;;5033338;28;20456;-68
2024/03/02 10:21:54;;;;;;;3.70;1.37;;;14.30;99.90;;;;;;5038375;28;20513;-69
2024/03/02 10:24:23;;;;;;;2.33;1.40;;;14.40;99.90;;;;;;5037388;28;20463;-68
2024/03/02 10:26:49;;;;;;;1.43;0.80;;;14.40;99.40;;;;;;5038084;28;20428;-70
2024/03/02 10:29:15;;;;;;;1.60;1.40;;;14.50;99.90;;;;;;5036978;28;20455;-66
2024/03/02 10:31:43;;;;;;;1.83;1.30;;;14.50;99.30;;;;;;5037554;28;20524;-70
2024/03/02 10:34:10;;;;;;;1.80;1.50;;;14.40;99.50;;;;;;5037423;28;20464;-67
2024/03/02 10:36:37;;;;;;;1.60;1.20;;;14.40;99.20;;;;;;5037559;28;20502;-67
2024/03/02 10:39:04;;;;;;;1.53;1.00;;;14.40;99.40;;;;;;5037776;28;20424;-68
2024/03/02 10:41:37;;;;;;;1.17;1.07;;;14.30;99.00;;;;;;5037644;28;20420;-65
2024/03/02 10:44:07;;;;;;;2.83;1.40;;;14.40;99.60;;;;;;5037383;28;20424;-72
2024/03/02 10:46:34;;;;;;;1.50;1.17;;;14.50;99.90;;;;;;5027509;28;20446;-70
2024/03/02 10:49:02;;;;;;;1.57;1.20;;;14.40;98.90;;;;;;5034733;28;20519;-71
2024/03/02 10:51:31;;;;;;;2.83;1.30;;;14.50;99.50;;;;;;5036303;28;20853;-68
2024/03/02 10:53:58;;;;;;;1.83;1.37;;;14.50;99.30;;;;;;5035038;28;20429;-72
2024/03/02 10:56:38;;;;;;;1.53;1.20;;;14.60;98.90;;;;;;5037140;28;20479;-70
2024/03/02 10:59:18;;;;;;;1.27;1.17;;;14.70;98.70;;;;;;5035845;28;20420;-68
2024/03/02 11:01:47;;;;;;;1.17;0.90;;;14.80;98.70;;;;;;5037101;28;20486;-72
2024/03/02 11:04:15;;;;;;;1.97;1.37;;;14.80;98.10;;;;;;5033899;28;20437;-71
2024/03/02 11:06:51;;;;;;;1.93;1.53;;;14.90;98.00;;;;;;5034477;28;20447;-72
2024/03/02 11:09:25;;;;;;;2.67;1.20;;;14.90;98.00;;;;;;5063611;28;20448;-70
2024/03/02 11:12:37;;;;;;;2.80;1.60;;;14.80;97.10;;;;;;5034640;28;20784;-68
2024/03/02 11:15:09;;;;;;;1.93;1.20;;;14.90;97.80;;;;;;4954096;28;20492;-71
2024/03/02 11:17:35;;;;;;;2.03;1.13;;;15.10;97.90;;;;;;5020015;28;20844;-66
2024/03/02 11:20:03;;;;;;;1.73;0.90;;;15.20;98.00;;;;;;5033456;28;20436;-74
2024/03/02 11:22:29;;;;;;;2.10;1.27;;;15.20;96.40;;;;;;5036425;28;20433;-74
2024/03/02 11:24:55;;;;;;;2.47;1.07;;;15.10;96.30;;;;;;5032708;28;20476;-72
2024/03/02 11:27:46;;;;;;;2.43;1.50;;;15.20;96.10;;;;;;5034744;28;20472;-72
2024/03/02 11:30:33;;;;;;;2.47;1.13;;;15.10;96.40;;;;;;5034394;28;20235;-69
2024/03/02 11:33:09;;;;;;;1.60;1.30;;;15.20;96.50;;;;;;5035781;28;20526;-70
2024/03/02 11:35:35;;;;;;;1.73;1.10;;;15.30;96.50;;;;;;5037137;28;20507;-64
2024/03/02 11:38:03;;;;;;;1.70;1.00;;;15.30;96.70;;;;;;5035208;28;20477;-70
2024/03/02 11:40:29;;;;;;;0.90;0.80;;;15.20;95.60;;;;;;5034563;28;20787;-73
2024/03/02 11:42:56;;;;;;;1.50;1.00;;;15.30;95.80;;;;;;5034280;28;20451;-74
2024/03/02 11:45:28;;;;;;;2.60;1.47;;;15.30;96.20;;;;;;5035601;28;21085;-69
2024/03/02 11:47:55;;;;;;;1.43;1.13;;;15.30;95.90;;;;;;5035497;28;20938;-65
2024/03/02 11:50:32;;;;;;;1.47;1.07;;;15.40;96.40;;;;;;5036544;28;20452;-70
2024/03/02 11:52:59;;;;;;;1.20;1.00;;;15.60;95.80;;;;;;5035387;28;20443;-68
2024/03/02 11:55:26;;;;;;;2.30;1.10;;;15.60;96.20;;;;;;5036835;28;21571;-73
2024/03/02 11:57:55;;;;;;;1.40;1.07;;;15.60;95.70;;;;;;5035594;28;20767;-70
2024/03/02 12:00:21;;;;;;;1.53;0.93;;;15.60;95.30;;;;;;5036296;28;20467;-69
2024/03/02 12:03:08;;;;;;;2.37;1.60;;;15.50;95.60;;;;;;5036264;28;20439;-69
2024/03/02 12:05:35;;;;;;;1.43;1.30;;;15.60;95.70;;;;;;5037240;28;20432;-69
2024/03/02 12:08:06;;;;;;;1.33;1.23;;;15.80;96.10;;;;;;5035178;28;20426;-68
2024/03/02 12:10:33;;;;;;;1.77;1.10;;;15.80;95.30;;;;;;5035963;28;20433;-66
2024/03/02 12:13:10;;;;;;;1.83;1.00;;;15.80;95.20;;;;;;5031964;28;20448;-71
2024/03/02 12:15:37;;;;;;;1.93;0.90;;;16.00;95.30;;;;;;5032665;28;20486;-66
2024/03/02 12:18:04;;;;;;;5.40;2.70;;;16.00;95.10;;;;;;5022602;28;20433;-65
2024/03/02 12:20:32;;;;;;;1.23;1.00;;;16.10;94.80;;;;;;5042487;28;20516;-75
2024/03/02 12:22:59;;;;;;;1.90;0.90;;;16.30;95.00;;;;;;5066773;28;20429;-67
2024/03/02 12:25:25;;;;;;;1.40;0.70;;;16.30;94.50;;;;;;5035038;28;20578;-70
2024/03/02 12:27:56;;;;;;;1.23;0.93;;;16.30;94.00;;;;;;5031577;28;20497;-70
2024/03/02 12:30:22;;;;;;;2.53;1.00;;;16.20;94.10;;;;;;5034127;28;20466;-71
2024/03/02 12:32:48;;;;;;;1.60;1.17;;;16.10;94.80;;;;;;5031656;28;20445;-73
2024/03/02 12:35:15;;;;;;;1.20;1.00;;;16.00;95.10;;;;;;5032710;28;20534;-73
2024/03/02 12:37:47;;;;;;;1.37;1.00;;;16.10;95.40;;;;;;5034165;28;20425;-70
2024/03/02 12:40:13;;;;;;;1.50;1.00;;;16.10;95.70;;;;;;5029676;28;21022;-70
2024/03/02 12:42:41;;;;;;;1.77;0.90;;;16.00;95.30;;;;;;5029884;28;20468;-68
2024/03/02 12:45:08;;;;;;;1.57;0.80;;;15.90;95.40;;;;;;5032753;28;20528;-69
2024/03/02 12:47:34;;;;;;;2.20;1.10;;;15.90;94.80;;;;;;5032839;28;20919;-75
2024/03/02 12:50:01;;;;;;;0.80;0.80;;;15.90;95.10;;;;;;5033124;28;20437;-70
2024/03/02 12:52:26;;;;;;;1.10;0.70;;;15.90;95.00;;;;;;5032329;28;20426;-68
2024/03/02 12:54:52;;;;;;;1.70;1.00;;;15.80;93.90;;;;;;5032427;28;20439;-69
2024/03/02 12:57:21;;;;;;;1.60;0.70;;;15.60;94.40;;;;;;5031387;28;20471;-70
2024/03/02 12:59:47;;;;;;;0.90;0.80;;;15.70;94.40;;;;;;5032499;28;20178;-68